createdAt,value
2022-07-29T00:01:53.852Z,8.63
2022-07-29T00:04:22.463Z,8.77
2022-07-29T00:06:50.979Z,7.97
2022-07-29T00:09:19.352Z,8.90
2022-07-29T00:11:48.140Z,8.05
2022-07-29T00:14:17.072Z,8.82
2022-07-29T00:16:45.694Z,9.07
2022-07-29T00:19:14.700Z,8.30
2022-07-29T00:21:43.077Z,8.75
2022-07-29T00:24:11.600Z,9.15
2022-07-29T00:26:40.124Z,8.75
2022-07-29T00:31:57.065Z,9.30
2022-07-29T00:34:43.759Z,8.40
2022-07-29T00:37:12.752Z,8.52
2022-07-29T00:39:41.020Z,8.35
2022-07-29T00:42:11.035Z,9.05
2022-07-29T00:44:40.289Z,7.82
2022-07-29T00:47:10.510Z,8.57
2022-07-29T00:49:40.113Z,9.35
2022-07-29T00:52:09.239Z,8.23
2022-07-29T00:54:44.850Z,8.18
2022-07-29T00:57:14.282Z,8.65
2022-07-29T00:59:42.716Z,9.73
2022-07-29T01:02:11.147Z,8.07
2022-07-29T01:04:39.880Z,8.25
2022-07-29T01:07:09.324Z,9.10
2022-07-29T01:09:45.542Z,8.90
2022-07-29T01:12:16.457Z,9.40
2022-07-29T01:14:45.983Z,8.82
2022-07-29T01:18:08.439Z,8.82
2022-07-29T01:21:04.590Z,8.20
2022-07-29T01:23:47.931Z,7.47
2022-07-29T01:26:22.601Z,8.13
2022-07-29T01:29:07.718Z,6.53
2022-07-29T01:32:03.205Z,8.05
2022-07-29T01:35:06.599Z,7.35
2022-07-29T01:37:41.124Z,7.30
2022-07-29T01:40:27.370Z,8.38
2022-07-29T01:42:58.834Z,8.00
2022-07-29T01:45:39.006Z,7.45
2022-07-29T01:48:14.944Z,8.02
2022-07-29T01:50:51.387Z,7.72
2022-07-29T01:53:29.205Z,7.75
2022-07-29T01:56:06.464Z,7.43
2022-07-29T01:58:35.480Z,6.85
2022-07-29T02:01:03.845Z,7.10
2022-07-29T02:03:32.744Z,7.22
2022-07-29T02:06:01.039Z,7.18
2022-07-29T02:08:29.481Z,6.80
2022-07-29T02:10:58.225Z,7.20
2022-07-29T02:13:26.979Z,7.15
2022-07-29T02:15:57.895Z,7.30
2022-07-29T02:18:26.998Z,8.65
2022-07-29T02:20:56.293Z,8.77
2022-07-29T02:23:24.900Z,8.85
2022-07-29T02:25:55.091Z,7.93
2022-07-29T02:28:28.374Z,8.43
2022-07-29T02:31:01.138Z,8.45
2022-07-29T02:33:30.194Z,8.25
2022-07-29T02:35:58.979Z,8.02
2022-07-29T02:38:45.771Z,7.22
2022-07-29T02:41:19.949Z,8.73
2022-07-29T02:43:54.780Z,8.02
2022-07-29T02:46:29.778Z,7.85
2022-07-29T02:49:12.842Z,7.95
2022-07-29T02:51:50.946Z,7.10
2022-07-29T02:54:40.768Z,7.25
2022-07-29T02:58:00.779Z,7.80
2022-07-29T03:00:30.416Z,7.47
2022-07-29T03:03:01.598Z,6.93
2022-07-29T03:05:30.113Z,7.65
2022-07-29T03:08:02.297Z,7.55
2022-07-29T03:10:30.830Z,7.20
2022-07-29T03:12:59.658Z,7.65
2022-07-29T03:15:27.963Z,7.20
2022-07-29T03:17:56.939Z,6.53
2022-07-29T03:20:25.443Z,6.78
2022-07-29T03:22:53.821Z,6.65
2022-07-29T03:25:22.268Z,6.53
2022-07-29T03:27:50.615Z,6.13
2022-07-29T03:30:22.197Z,6.13
2022-07-29T03:32:52.216Z,6.40
2022-07-29T03:35:21.444Z,6.65
2022-07-29T03:37:50.120Z,6.90
2022-07-29T03:40:29.065Z,7.15
2022-07-29T03:42:57.893Z,7.07
2022-07-29T03:45:26.496Z,6.43
2022-07-29T03:48:00.549Z,6.55
2022-07-29T03:50:30.642Z,6.95
2022-07-29T03:52:59.343Z,7.50
2022-07-29T03:55:27.918Z,6.05
2022-07-29T03:57:56.337Z,7.25
2022-07-29T04:00:25.633Z,7.47
2022-07-29T04:02:54.015Z,8.90
2022-07-29T04:05:22.935Z,10.48
2022-07-29T04:07:51.339Z,18.40
2022-07-29T04:10:30.401Z,25.25
2022-07-29T04:13:01.034Z,28.27
2022-07-29T04:15:31.204Z,25.40
2022-07-29T04:18:00.668Z,25.10
2022-07-29T04:20:29.254Z,19.38
2022-07-29T04:22:58.743Z,18.90
2022-07-29T04:25:27.241Z,15.18
2022-07-29T04:28:01.492Z,13.63
2022-07-29T04:30:30.961Z,11.05
2022-07-29T04:32:59.826Z,11.35
2022-07-29T04:35:29.981Z,10.63
2022-07-29T04:37:59.486Z,10.45
2022-07-29T04:40:28.906Z,11.02
2022-07-29T04:42:57.458Z,9.57
2022-07-29T04:45:29.479Z,10.32
2022-07-29T04:47:58.210Z,10.55
2022-07-29T04:50:26.699Z,10.20
2022-07-29T04:52:55.607Z,9.68
2022-07-29T04:55:24.106Z,9.35
2022-07-29T04:57:52.651Z,8.65
2022-07-29T05:00:21.167Z,9.20
2022-07-29T05:02:49.619Z,8.77
2022-07-29T05:05:18.308Z,8.95
2022-07-29T05:07:47.297Z,9.30
2022-07-29T05:10:15.678Z,9.23
2022-07-29T05:12:44.150Z,9.25
2022-07-29T05:15:12.563Z,8.95
2022-07-29T05:17:40.908Z,10.55
2022-07-29T05:20:09.839Z,11.13
2022-07-29T05:22:38.277Z,11.88
2022-07-29T05:25:09.246Z,10.52
2022-07-29T05:27:38.138Z,10.05
2022-07-29T05:30:07.235Z,10.18
2022-07-29T05:32:35.607Z,9.68
2022-07-29T05:35:04.148Z,9.68
2022-07-29T05:37:32.482Z,8.88
2022-07-29T05:40:01.934Z,9.88
2022-07-29T05:42:30.844Z,8.55
2022-07-29T05:44:59.236Z,8.48
2022-07-29T05:47:27.539Z,9.13
2022-07-29T05:49:56.013Z,8.25
2022-07-29T05:52:24.479Z,8.45
2022-07-29T05:54:53.467Z,7.55
2022-07-29T05:57:23.475Z,8.32
2022-07-29T05:59:52.369Z,8.18
2022-07-29T06:02:20.829Z,7.57
2022-07-29T06:04:49.917Z,7.93
2022-07-29T06:07:18.524Z,8.75
2022-07-29T06:09:46.936Z,9.00
2022-07-29T06:12:16.324Z,8.02
2022-07-29T06:14:44.813Z,9.52
2022-07-29T06:17:13.317Z,10.02
2022-07-29T06:19:41.921Z,10.02
2022-07-29T06:22:10.284Z,10.00
2022-07-29T06:24:42.663Z,10.63
2022-07-29T06:27:12.842Z,11.32
2022-07-29T06:29:43.822Z,10.88
2022-07-29T06:32:12.598Z,10.60
2022-07-29T06:34:40.987Z,9.43
2022-07-29T06:37:15.521Z,9.45
2022-07-29T06:39:44.255Z,10.00
2022-07-29T06:42:12.820Z,9.20
2022-07-29T06:44:44.563Z,7.88
2022-07-29T06:47:14.039Z,8.45
2022-07-29T06:49:42.934Z,7.97
2022-07-29T06:52:11.921Z,8.05
2022-07-29T06:54:41.143Z,8.68
2022-07-29T06:57:09.504Z,7.13
2022-07-29T06:59:37.908Z,7.82
2022-07-29T07:02:06.421Z,8.77
2022-07-29T07:04:34.928Z,7.30
2022-07-29T07:07:04.107Z,7.18
2022-07-29T07:09:40.461Z,7.82
2022-07-29T07:12:09.561Z,8.75
2022-07-29T07:14:38.203Z,7.35
2022-07-29T07:17:08.602Z,8.05
2022-07-29T07:19:37.009Z,7.05
2022-07-29T07:22:06.343Z,7.78
2022-07-29T07:24:34.751Z,6.55
2022-07-29T07:27:03.814Z,7.03
2022-07-29T07:29:32.670Z,6.75
2022-07-29T07:32:01.579Z,6.72
2022-07-29T07:34:31.368Z,6.45
2022-07-29T07:36:59.839Z,6.32
2022-07-29T07:39:28.366Z,6.43
2022-07-29T07:41:57.507Z,6.68
2022-07-29T07:44:26.237Z,6.22
2022-07-29T07:46:55.338Z,6.47
2022-07-29T07:49:24.180Z,7.30
2022-07-29T07:51:54.850Z,6.78
2022-07-29T07:54:23.303Z,6.50
2022-07-29T07:56:53.389Z,6.78
2022-07-29T07:59:22.024Z,6.72
2022-07-29T08:01:55.522Z,6.68
2022-07-29T08:04:28.725Z,6.47
2022-07-29T08:06:58.138Z,6.75
2022-07-29T08:09:29.930Z,6.70
2022-07-29T08:12:00.528Z,6.68
2022-07-29T08:14:29.766Z,6.60
2022-07-29T08:16:59.823Z,6.00
2022-07-29T08:19:29.111Z,6.65
2022-07-29T08:21:57.479Z,7.10
2022-07-29T08:24:44.098Z,6.25
2022-07-29T08:27:40.686Z,6.43
2022-07-29T08:30:01.446Z,6.75
2022-07-29T08:32:52.533Z,5.88
2022-07-29T08:35:18.555Z,6.05
2022-07-29T08:37:47.299Z,7.00
2022-07-29T08:40:17.730Z,5.93
2022-07-29T08:42:46.171Z,6.47
2022-07-29T08:45:14.769Z,5.85
2022-07-29T08:47:43.457Z,5.57
2022-07-29T08:50:13.618Z,6.10
2022-07-29T08:52:42.188Z,5.85
2022-07-29T08:55:11.197Z,6.55
2022-07-29T08:57:48.766Z,5.75
2022-07-29T09:00:20.701Z,5.78
2022-07-29T09:02:49.538Z,6.25
2022-07-29T09:05:17.968Z,6.00
2022-07-29T09:07:49.131Z,6.43
2022-07-29T09:10:17.778Z,6.20
2022-07-29T09:12:46.231Z,6.03
2022-07-29T09:15:15.992Z,5.68
2022-07-29T09:17:53.789Z,6.07
2022-07-29T09:20:25.620Z,6.28
2022-07-29T09:22:54.820Z,6.00
2022-07-29T09:25:40.170Z,6.15
2022-07-29T09:28:14.010Z,6.25
2022-07-29T09:30:55.869Z,5.68
2022-07-29T09:33:24.698Z,5.78
2022-07-29T09:36:13.159Z,5.50
2022-07-29T09:38:41.544Z,6.30
2022-07-29T09:41:14.637Z,5.32
2022-07-29T09:43:54.220Z,5.55
2022-07-29T09:46:26.236Z,6.25
2022-07-29T09:49:15.467Z,5.95
2022-07-29T09:51:44.380Z,6.05
2022-07-29T09:54:25.735Z,5.75
2022-07-29T09:56:56.370Z,6.05
2022-07-29T09:59:27.793Z,5.18
2022-07-29T10:01:56.573Z,5.57
2022-07-29T10:04:25.315Z,5.78
2022-07-29T10:07:04.401Z,5.57
2022-07-29T10:09:35.390Z,5.28
2022-07-29T10:12:12.203Z,5.55
2022-07-29T10:14:42.113Z,6.05
2022-07-29T10:17:13.957Z,5.38
2022-07-29T10:19:44.012Z,5.80
2022-07-29T10:22:12.610Z,5.75
2022-07-29T10:24:44.120Z,5.38
2022-07-29T10:27:14.100Z,5.35
2022-07-29T10:29:43.287Z,5.80
2022-07-29T10:32:24.638Z,5.40
2022-07-29T10:35:02.802Z,5.03
2022-07-29T10:38:02.155Z,6.20
2022-07-29T10:41:20.063Z,6.10
2022-07-29T10:43:48.764Z,5.75
2022-07-29T10:46:21.224Z,5.88
2022-07-29T10:49:16.335Z,5.88
2022-07-29T10:52:18.344Z,5.70
2022-07-29T10:54:51.291Z,5.82
2022-07-29T10:57:54.210Z,5.95
2022-07-29T11:00:16.820Z,6.43
2022-07-29T11:02:47.131Z,6.53
2022-07-29T11:05:20.567Z,6.07
2022-07-29T11:08:20.437Z,5.57
2022-07-29T11:10:50.719Z,5.97
2022-07-29T11:17:02.342Z,6.45
2022-07-29T11:19:35.873Z,5.80
2022-07-29T11:22:05.616Z,5.65
2022-07-29T11:24:36.768Z,5.90
2022-07-29T11:27:09.120Z,5.32
2022-07-29T11:29:41.632Z,5.95
2022-07-29T11:35:37.696Z,5.75
2022-07-29T11:38:23.805Z,5.43
2022-07-29T11:41:31.828Z,5.95
2022-07-29T11:44:01.686Z,5.57
2022-07-29T11:46:53.872Z,5.65
2022-07-29T11:49:32.506Z,5.40
2022-07-29T11:52:04.896Z,5.35
2022-07-29T11:54:57.268Z,5.53
2022-07-29T12:00:18.557Z,4.85
2022-07-29T12:02:48.990Z,5.35
2022-07-29T12:05:36.494Z,5.43
2022-07-29T12:07:02.364Z,5.38
2022-07-29T12:08:12.602Z,5.53
2022-07-29T12:10:43.941Z,5.32
2022-07-29T12:13:13.611Z,5.00
2022-07-29T12:15:47.003Z,5.95
2022-07-29T12:18:18.440Z,5.50
2022-07-29T12:20:47.561Z,5.20
2022-07-29T12:23:18.851Z,6.13
2022-07-29T12:25:49.955Z,5.90
2022-07-29T12:28:27.395Z,5.78
2022-07-29T12:30:57.433Z,5.82
2022-07-29T12:33:29.145Z,5.40
2022-07-29T12:36:17.164Z,6.10
2022-07-29T12:38:46.261Z,6.10
2022-07-29T12:41:16.299Z,5.80
2022-07-29T12:43:55.968Z,5.38
2022-07-29T12:46:24.681Z,5.85
2022-07-29T12:48:57.953Z,5.45
2022-07-29T12:51:40.179Z,5.65
2022-07-29T12:54:18.185Z,6.07
2022-07-29T12:56:46.878Z,5.72
2022-07-29T12:59:21.206Z,5.40
2022-07-29T13:01:51.244Z,6.00
2022-07-29T13:04:32.590Z,5.57
2022-07-29T13:08:29.612Z,6.22
2022-07-29T13:10:17.883Z,5.80
2022-07-29T13:13:07.844Z,6.00
2022-07-29T13:15:37.420Z,6.07
2022-07-29T13:18:06.564Z,6.15
2022-07-29T13:20:35.279Z,6.00
2022-07-29T13:23:03.811Z,5.50
2022-07-29T13:25:35.862Z,6.00
2022-07-29T13:28:05.224Z,6.30
2022-07-29T13:30:33.654Z,5.70
2022-07-29T13:33:02.100Z,6.07
2022-07-29T13:35:30.941Z,5.78
2022-07-29T13:37:59.506Z,5.68
2022-07-29T13:40:32.995Z,5.68
2022-07-29T13:43:03.659Z,5.57
2022-07-29T13:45:33.960Z,6.28
2022-07-29T13:48:02.550Z,4.63
2022-07-29T13:50:32.050Z,4.75
2022-07-29T13:53:00.568Z,4.13
2022-07-29T13:55:28.930Z,4.10
2022-07-29T13:57:57.937Z,3.90
2022-07-29T14:00:27.503Z,4.47
2022-07-29T14:02:56.990Z,4.80
2022-07-29T14:05:26.448Z,6.38
2022-07-29T14:07:54.851Z,4.30
2022-07-29T14:10:23.630Z,4.20
2022-07-29T14:12:52.190Z,3.80
2022-07-29T14:15:21.630Z,4.18
2022-07-29T14:17:49.984Z,3.88
2022-07-29T14:20:19.413Z,4.43
2022-07-29T14:22:49.606Z,4.28
2022-07-29T14:25:18.813Z,4.30
2022-07-29T14:27:49.706Z,4.00
2022-07-29T14:30:19.749Z,3.92
2022-07-29T14:32:49.713Z,5.25
2022-07-29T14:35:18.143Z,4.40
2022-07-29T14:37:47.264Z,5.18
2022-07-29T14:40:15.893Z,5.63
2022-07-29T14:42:44.339Z,5.55
2022-07-29T14:45:15.511Z,5.20
2022-07-29T14:47:45.932Z,5.38
2022-07-29T14:50:14.851Z,5.90
2022-07-29T14:52:43.279Z,6.07
2022-07-29T14:55:19.924Z,5.20
2022-07-29T14:57:50.903Z,4.80
2022-07-29T15:00:19.583Z,5.22
2022-07-29T15:03:03.707Z,5.20
2022-07-29T15:05:32.473Z,5.28
2022-07-29T15:08:01.976Z,4.60
2022-07-29T15:10:30.576Z,4.88
2022-07-29T15:12:59.019Z,4.80
2022-07-29T15:15:27.612Z,5.18
2022-07-29T15:17:56.748Z,4.60
2022-07-29T15:20:28.400Z,4.35
2022-07-29T15:22:57.749Z,4.85
2022-07-29T15:25:28.160Z,5.47
2022-07-29T15:28:01.178Z,5.22
2022-07-29T15:30:33.358Z,5.72
2022-07-29T15:33:04.437Z,5.25
2022-07-29T15:35:33.251Z,5.50
2022-07-29T15:38:08.790Z,5.70
2022-07-29T15:40:39.584Z,5.40
2022-07-29T15:43:08.817Z,5.10
2022-07-29T15:45:42.068Z,5.75
2022-07-29T15:48:14.572Z,4.82
2022-07-29T15:50:46.949Z,5.45
2022-07-29T15:53:15.840Z,5.55
2022-07-29T15:55:44.510Z,5.32
2022-07-29T15:58:13.086Z,5.25
2022-07-29T16:00:41.429Z,4.85
2022-07-29T16:03:12.153Z,4.88
2022-07-29T16:05:44.898Z,5.47
2022-07-29T16:08:15.813Z,5.53
2022-07-29T16:10:44.372Z,5.38
2022-07-29T16:13:16.949Z,5.18
2022-07-29T16:16:02.803Z,5.30
2022-07-29T16:18:32.910Z,5.10
2022-07-29T16:21:03.941Z,5.35
2022-07-29T16:23:33.947Z,5.93
2022-07-29T16:26:02.452Z,6.05
2022-07-29T16:28:37.615Z,5.00
2022-07-29T16:31:08.268Z,5.57
2022-07-29T16:33:54.902Z,5.38
2022-07-29T16:36:24.662Z,6.47
2022-07-29T16:38:53.103Z,10.88
2022-07-29T16:41:24.179Z,5.60
2022-07-29T16:43:52.690Z,5.80
2022-07-29T16:46:21.857Z,6.90
2022-07-29T16:48:52.707Z,8.63
2022-07-29T16:51:22.965Z,9.10
2022-07-29T16:53:51.513Z,6.47
2022-07-29T16:56:20.019Z,6.10
2022-07-29T16:58:48.566Z,5.93
2022-07-29T17:01:20.127Z,7.13
2022-07-29T17:04:06.630Z,6.30
2022-07-29T17:06:36.946Z,5.78
2022-07-29T17:09:06.362Z,5.32
2022-07-29T17:11:53.799Z,5.18
2022-07-29T17:14:26.682Z,5.45
2022-07-29T17:17:00.328Z,5.28
2022-07-29T17:19:34.107Z,5.75
2022-07-29T17:22:10.412Z,5.88
2022-07-29T17:24:42.728Z,6.50
2022-07-29T17:27:11.904Z,8.23
2022-07-29T17:29:40.442Z,5.72
2022-07-29T17:32:09.405Z,5.68
2022-07-29T17:34:41.197Z,5.13
2022-07-29T17:37:11.676Z,7.03
2022-07-29T17:39:43.821Z,7.88
2022-07-29T17:42:13.656Z,5.78
2022-07-29T17:44:42.797Z,53.60
2022-07-29T17:47:16.083Z,21.73
2022-07-29T17:49:46.324Z,6.47
2022-07-29T17:52:16.286Z,5.22
2022-07-29T17:54:44.636Z,5.97
2022-07-29T17:57:13.035Z,5.68
2022-07-29T17:59:41.758Z,5.90
2022-07-29T18:02:10.349Z,6.10
2022-07-29T18:04:39.028Z,5.75
2022-07-29T18:07:07.345Z,5.35
2022-07-29T18:09:40.739Z,5.63
2022-07-29T18:12:11.834Z,6.07
2022-07-29T18:14:40.374Z,6.43
2022-07-29T18:17:09.110Z,6.10
2022-07-29T18:19:38.333Z,5.97
2022-07-29T18:22:12.319Z,6.57
2022-07-29T18:24:44.060Z,6.20
2022-07-29T18:27:13.258Z,6.03
2022-07-29T18:29:42.803Z,6.15
2022-07-29T18:32:11.671Z,6.07
2022-07-29T18:34:40.450Z,6.07
2022-07-29T18:37:08.925Z,6.03
2022-07-29T18:39:37.505Z,6.05
2022-07-29T18:42:06.224Z,6.60
2022-07-29T18:44:43.677Z,6.35
2022-07-29T18:47:22.244Z,6.53
2022-07-29T18:49:53.396Z,7.10
2022-07-29T18:52:24.405Z,6.68
2022-07-29T18:54:54.930Z,5.40
2022-07-29T18:57:54.453Z,6.45
2022-07-29T19:00:16.362Z,6.93
2022-07-29T19:02:45.571Z,7.13
2022-07-29T19:05:16.579Z,6.88
2022-07-29T19:07:45.382Z,6.70
2022-07-29T19:10:15.224Z,6.60
2022-07-29T19:12:43.640Z,6.05
2022-07-29T19:15:19.879Z,6.85
2022-07-29T19:18:00.528Z,6.50
2022-07-29T19:20:32.424Z,6.55
2022-07-29T19:23:00.889Z,6.43
2022-07-29T19:25:35.807Z,6.07
2022-07-29T19:28:05.157Z,6.93
2022-07-29T19:30:35.610Z,6.53
2022-07-29T19:33:04.238Z,6.38
2022-07-29T19:35:34.795Z,6.03
2022-07-29T19:38:04.173Z,7.13
2022-07-29T19:40:33.659Z,6.75
2022-07-29T19:43:52.030Z,7.03
2022-07-29T19:45:56.575Z,7.85
2022-07-29T19:48:27.704Z,6.47
2022-07-29T19:50:58.359Z,6.65
2022-07-29T19:53:26.896Z,6.70
2022-07-29T19:55:55.304Z,6.65
2022-07-29T19:58:26.985Z,6.63
2022-07-29T20:00:58.352Z,6.90
2022-07-29T20:03:32.078Z,6.10
2022-07-29T20:06:03.757Z,6.10
2022-07-29T20:08:33.280Z,7.20
2022-07-29T20:11:04.280Z,6.85
2022-07-29T20:13:34.536Z,6.40
2022-07-29T20:16:05.924Z,6.03
2022-07-29T20:18:35.116Z,6.90
2022-07-29T20:21:04.911Z,6.60
2022-07-29T20:23:33.745Z,7.07
2022-07-29T20:26:03.452Z,7.10
2022-07-29T20:28:36.249Z,7.32
2022-07-29T20:31:04.759Z,7.28
2022-07-29T20:33:35.998Z,8.07
2022-07-29T20:36:06.178Z,8.35
2022-07-29T20:38:34.842Z,8.27
2022-07-29T20:41:06.168Z,8.13
2022-07-29T20:43:35.919Z,7.28
2022-07-29T20:46:07.532Z,8.57
2022-07-29T20:48:36.255Z,7.72
2022-07-29T20:51:05.395Z,6.90
2022-07-29T20:53:34.257Z,7.28
2022-07-29T20:56:03.248Z,6.82
2022-07-29T20:58:33.005Z,7.15
2022-07-29T21:01:02.495Z,7.22
2022-07-29T21:03:30.985Z,7.60
2022-07-29T21:06:00.858Z,6.85
2022-07-29T21:08:29.337Z,7.68
2022-07-29T21:10:58.007Z,6.88
2022-07-29T21:13:26.409Z,7.13
2022-07-29T21:15:58.108Z,6.60
2022-07-29T21:18:33.367Z,7.18
2022-07-29T21:21:01.760Z,7.25
2022-07-29T21:23:30.598Z,7.00
2022-07-29T21:25:59.069Z,6.35
2022-07-29T21:28:27.519Z,6.38
2022-07-29T21:30:59.859Z,6.70
2022-07-29T21:33:29.105Z,6.43
2022-07-29T21:38:46.100Z,7.18
2022-07-29T21:41:15.684Z,6.63
2022-07-29T21:43:44.209Z,6.07
2022-07-29T21:46:12.636Z,6.60
2022-07-29T21:48:44.393Z,5.80
2022-07-29T21:51:13.149Z,6.47
2022-07-29T21:53:42.475Z,7.13
2022-07-29T21:56:14.975Z,6.32
2022-07-29T21:58:43.641Z,6.85
2022-07-29T22:01:12.263Z,6.32
2022-07-29T22:03:40.796Z,6.18
2022-07-29T22:06:11.279Z,6.70
2022-07-29T22:08:46.407Z,6.72
2022-07-29T22:11:14.944Z,6.60
2022-07-29T22:13:43.434Z,6.32
2022-07-29T22:16:15.230Z,6.30
2022-07-29T22:18:47.131Z,6.40
2022-07-29T22:21:15.576Z,6.30
2022-07-29T22:23:44.048Z,6.53
2022-07-29T22:26:12.574Z,6.18
2022-07-29T22:28:41.086Z,6.13
2022-07-29T22:31:09.550Z,6.00
2022-07-29T22:33:38.165Z,6.30
2022-07-29T22:36:06.938Z,6.50
2022-07-29T22:38:35.914Z,7.18
2022-07-29T22:41:04.344Z,6.43
2022-07-29T22:43:32.757Z,6.82
2022-07-29T22:46:01.367Z,7.13
2022-07-29T22:48:29.693Z,6.75
2022-07-29T22:50:58.068Z,6.35
2022-07-29T22:53:26.540Z,6.90
2022-07-29T22:55:54.965Z,6.57
2022-07-29T22:58:23.338Z,6.00
2022-07-29T23:00:51.838Z,6.93
2022-07-29T23:03:20.903Z,6.22
2022-07-29T23:05:51.862Z,6.18
2022-07-29T23:08:20.323Z,6.15
2022-07-29T23:10:48.764Z,6.15
2022-07-29T23:13:17.232Z,6.38
2022-07-29T23:15:46.016Z,6.15
2022-07-29T23:18:14.650Z,6.53
2022-07-29T23:20:43.499Z,6.32
2022-07-29T23:23:11.869Z,5.63
2022-07-29T23:25:40.850Z,6.75
2022-07-29T23:28:13.059Z,6.38
2022-07-29T23:30:42.539Z,6.20
2022-07-29T23:33:10.820Z,6.47
2022-07-29T23:35:39.259Z,6.25
2022-07-29T23:38:07.644Z,6.25
2022-07-29T23:40:35.966Z,6.30
2022-07-29T23:43:08.568Z,5.93
2022-07-29T23:45:44.766Z,6.03
2022-07-29T23:48:17.028Z,6.57
2022-07-29T23:50:47.312Z,6.68
2022-07-29T23:53:15.738Z,6.90
2022-07-29T23:55:45.490Z,6.75
2022-07-29T23:58:13.861Z,6.53
